aviador You're here:

CYOJ Decoded Metar

HIGH LEVEL in AB, CANADA
Report Time2018-01-22 11:58:00
UTC Time2018-01-22 12:09:16
Flight Rules vfr VFR
Wind150° at 05 kt
W.Decomp.*RWY 13: 5.0 kt HW 0.1 kt LCW
W.Rank150° ranks 4
Current wind is below 150° avg. (5.8)
Visibility9656 m
Phenomena:Light Snow
Clouds:Few 035 Hf
Overcast 055 Hf
Expected CloudBase > 800 ft AGL from Temp-Dew spread
Ceiling5,500 ft
Temp-16°C (ISA -29)
Dew Point-18°C (85% RH)
AAT-21.3°C
QNH1009 hPa
Density Alt-2,369 ft
Elevation1,109 ft
Report Wrong Elevation
Raw Report
SPECI CYOJ 221158Z AUTO 15005KT 6SM -SN FEW035 OVC055 M16/M18 A2979
RMK SLP123=

Extra information for CYOJ:More info

Metar Taf Metar & Taf Last 4 Metars F.Rules Stats Wind Profile Meteogram Temp Stats Airport Information Weather charts Add Link Nearby VenuesMetar ALERT Operation Metar Decoded Social comments